sensor_id;sensor_type;location;lat;lon;timestamp;P1;durP1;ratioP1;P2;durP2;ratioP2
16669;SDS011;8448;52.034;5.158;2024-02-28T00:02:06;27.13;;;15.43;;
16669;SDS011;8448;52.034;5.158;2024-02-28T00:04:35;26.90;;;16.23;;
16669;SDS011;8448;52.034;5.158;2024-02-28T00:07:02;29.60;;;16.77;;
16669;SDS011;8448;52.034;5.158;2024-02-28T00:09:29;29.57;;;17.57;;
16669;SDS011;8448;52.034;5.158;2024-02-28T00:11:57;29.13;;;16.97;;
16669;SDS011;8448;52.034;5.158;2024-02-28T00:14:24;27.13;;;16.93;;
16669;SDS011;8448;52.034;5.158;2024-02-28T00:16:53;30.23;;;17.33;;
16669;SDS011;8448;52.034;5.158;2024-02-28T00:19:20;28.40;;;18.07;;
16669;SDS011;8448;52.034;5.158;2024-02-28T00:21:51;27.83;;;17.23;;
16669;SDS011;8448;52.034;5.158;2024-02-28T00:24:18;27.20;;;16.53;;
16669;SDS011;8448;52.034;5.158;2024-02-28T00:26:46;28.43;;;17.27;;
16669;SDS011;8448;52.034;5.158;2024-02-28T00:29:13;26.37;;;16.20;;
16669;SDS011;8448;52.034;5.158;2024-02-28T00:31:40;27.83;;;16.63;;
16669;SDS011;8448;52.034;5.158;2024-02-28T00:34:08;30.00;;;17.33;;
16669;SDS011;8448;52.034;5.158;2024-02-28T00:36:35;27.93;;;17.53;;
16669;SDS011;8448;52.034;5.158;2024-02-28T00:39:04;31.63;;;17.60;;
16669;SDS011;8448;52.034;5.158;2024-02-28T00:41:31;29.47;;;17.63;;
16669;SDS011;8448;52.034;5.158;2024-02-28T00:43:59;29.43;;;17.00;;
16669;SDS011;8448;52.034;5.158;2024-02-28T00:46:26;28.50;;;17.83;;
16669;SDS011;8448;52.034;5.158;2024-02-28T00:48:53;29.70;;;17.47;;
16669;SDS011;8448;52.034;5.158;2024-02-28T00:51:21;29.77;;;17.77;;
16669;SDS011;8448;52.034;5.158;2024-02-28T00:53:48;27.07;;;16.97;;
16669;SDS011;8448;52.034;5.158;2024-02-28T00:56:17;30.17;;;16.83;;
16669;SDS011;8448;52.034;5.158;2024-02-28T00:58:45;28.67;;;17.30;;
16669;SDS011;8448;52.034;5.158;2024-02-28T01:01:12;28.87;;;17.53;;
16669;SDS011;8448;52.034;5.158;2024-02-28T01:03:39;28.60;;;16.53;;
16669;SDS011;8448;52.034;5.158;2024-02-28T01:06:07;27.87;;;16.50;;
16669;SDS011;8448;52.034;5.158;2024-02-28T01:08:34;29.60;;;16.63;;
16669;SDS011;8448;52.034;5.158;2024-02-28T01:11:02;28.33;;;16.90;;
16669;SDS011;8448;52.034;5.158;2024-02-28T01:13:30;28.63;;;17.07;;
16669;SDS011;8448;52.034;5.158;2024-02-28T01:15:58;27.53;;;17.00;;
16669;SDS011;8448;52.034;5.158;2024-02-28T01:18:25;29.97;;;17.20;;
16669;SDS011;8448;52.034;5.158;2024-02-28T01:20:55;29.17;;;17.10;;
16669;SDS011;8448;52.034;5.158;2024-02-28T01:23:23;31.17;;;17.80;;
16669;SDS011;8448;52.034;5.158;2024-02-28T01:25:50;27.47;;;16.17;;
16669;SDS011;8448;52.034;5.158;2024-02-28T01:28:17;28.87;;;17.03;;
16669;SDS011;8448;52.034;5.158;2024-02-28T01:30:46;32.80;;;18.40;;
16669;SDS011;8448;52.034;5.158;2024-02-28T01:33:14;30.80;;;17.77;;
16669;SDS011;8448;52.034;5.158;2024-02-28T01:35:41;28.83;;;17.47;;
16669;SDS011;8448;52.034;5.158;2024-02-28T01:38:09;33.47;;;17.53;;
16669;SDS011;8448;52.034;5.158;2024-02-28T01:40:36;29.63;;;16.30;;
16669;SDS011;8448;52.034;5.158;2024-02-28T01:43:03;29.30;;;17.17;;
16669;SDS011;8448;52.034;5.158;2024-02-28T01:45:33;29.53;;;17.00;;
16669;SDS011;8448;52.034;5.158;2024-02-28T01:48:01;29.23;;;16.73;;
16669;SDS011;8448;52.034;5.158;2024-02-28T01:50:30;29.20;;;17.03;;
16669;SDS011;8448;52.034;5.158;2024-02-28T01:52:57;28.07;;;16.73;;
16669;SDS011;8448;52.034;5.158;2024-02-28T01:55:25;28.93;;;16.53;;
16669;SDS011;8448;52.034;5.158;2024-02-28T01:57:52;29.57;;;16.63;;
16669;SDS011;8448;52.034;5.158;2024-02-28T02:00:20;28.63;;;16.43;;
16669;SDS011;8448;52.034;5.158;2024-02-28T02:02:49;31.73;;;17.63;;
16669;SDS011;8448;52.034;5.158;2024-02-28T02:05:18;29.40;;;16.20;;
16669;SDS011;8448;52.034;5.158;2024-02-28T02:07:46;28.33;;;16.13;;
16669;SDS011;8448;52.034;5.158;2024-02-28T02:10:14;26.80;;;16.57;;
16669;SDS011;8448;52.034;5.158;2024-02-28T02:12:41;27.50;;;16.83;;
16669;SDS011;8448;52.034;5.158;2024-02-28T02:15:09;27.37;;;16.50;;
16669;SDS011;8448;52.034;5.158;2024-02-28T02:17:36;27.33;;;16.37;;
16669;SDS011;8448;52.034;5.158;2024-02-28T02:20:04;27.70;;;15.67;;
16669;SDS011;8448;52.034;5.158;2024-02-28T02:22:35;26.63;;;16.07;;
16669;SDS011;8448;52.034;5.158;2024-02-28T02:25:03;27.20;;;15.93;;
16669;SDS011;8448;52.034;5.158;2024-02-28T02:27:31;24.80;;;15.37;;
16669;SDS011;8448;52.034;5.158;2024-02-28T02:29:59;26.47;;;16.17;;
16669;SDS011;8448;52.034;5.158;2024-02-28T02:32:26;25.43;;;15.97;;
16669;SDS011;8448;52.034;5.158;2024-02-28T02:34:53;23.87;;;14.40;;
16669;SDS011;8448;52.034;5.158;2024-02-28T02:37:21;26.83;;;15.80;;
16669;SDS011;8448;52.034;5.158;2024-02-28T02:39:50;24.23;;;15.47;;
16669;SDS011;8448;52.034;5.158;2024-02-28T02:42:18;24.30;;;14.77;;
16669;SDS011;8448;52.034;5.158;2024-02-28T02:44:46;25.43;;;15.60;;
16669;SDS011;8448;52.034;5.158;2024-02-28T02:47:13;24.57;;;15.33;;
16669;SDS011;8448;52.034;5.158;2024-02-28T02:49:40;24.37;;;15.43;;
16669;SDS011;8448;52.034;5.158;2024-02-28T02:52:08;22.30;;;15.10;;
16669;SDS011;8448;52.034;5.158;2024-02-28T02:54:36;24.57;;;15.40;;
16669;SDS011;8448;52.034;5.158;2024-02-28T02:57:05;25.90;;;15.03;;
16669;SDS011;8448;52.034;5.158;2024-02-28T02:59:32;24.20;;;14.97;;
16669;SDS011;8448;52.034;5.158;2024-02-28T03:02:00;28.03;;;16.07;;
16669;SDS011;8448;52.034;5.158;2024-02-28T03:04:29;29.13;;;17.90;;
16669;SDS011;8448;52.034;5.158;2024-02-28T03:06:56;27.23;;;15.37;;
16669;SDS011;8448;52.034;5.158;2024-02-28T03:09:23;25.20;;;16.30;;
16669;SDS011;8448;52.034;5.158;2024-02-28T03:11:51;28.03;;;17.50;;
16669;SDS011;8448;52.034;5.158;2024-02-28T03:14:19;28.07;;;16.70;;
16669;SDS011;8448;52.034;5.158;2024-02-28T03:16:47;28.43;;;17.67;;
16669;SDS011;8448;52.034;5.158;2024-02-28T03:19:16;26.97;;;17.07;;
16669;SDS011;8448;52.034;5.158;2024-02-28T03:21:43;26.53;;;17.13;;
16669;SDS011;8448;52.034;5.158;2024-02-28T03:24:11;28.27;;;16.70;;
16669;SDS011;8448;52.034;5.158;2024-02-28T03:26:40;26.97;;;16.70;;
16669;SDS011;8448;52.034;5.158;2024-02-28T03:29:08;28.40;;;17.13;;
16669;SDS011;8448;52.034;5.158;2024-02-28T03:31:37;27.20;;;17.23;;
16669;SDS011;8448;52.034;5.158;2024-02-28T03:34:04;25.87;;;17.33;;
16669;SDS011;8448;52.034;5.158;2024-02-28T03:36:33;27.03;;;16.73;;
16669;SDS011;8448;52.034;5.158;2024-02-28T03:39:02;25.90;;;17.87;;
16669;SDS011;8448;52.034;5.158;2024-02-28T03:41:31;27.13;;;18.13;;
16669;SDS011;8448;52.034;5.158;2024-02-28T03:43:58;27.13;;;17.87;;
16669;SDS011;8448;52.034;5.158;2024-02-28T03:46:25;26.80;;;17.87;;
16669;SDS011;8448;52.034;5.158;2024-02-28T03:48:54;26.83;;;17.50;;
16669;SDS011;8448;52.034;5.158;2024-02-28T03:51:21;28.23;;;17.87;;
16669;SDS011;8448;52.034;5.158;2024-02-28T03:53:49;27.40;;;17.87;;
16669;SDS011;8448;52.034;5.158;2024-02-28T03:56:21;30.60;;;17.43;;
16669;SDS011;8448;52.034;5.158;2024-02-28T03:58:49;25.60;;;17.17;;
16669;SDS011;8448;52.034;5.158;2024-02-28T04:01:17;27.57;;;17.27;;
16669;SDS011;8448;52.034;5.158;2024-02-28T04:03:44;30.20;;;17.53;;
16669;SDS011;8448;52.034;5.158;2024-02-28T04:06:13;25.37;;;17.13;;
16669;SDS011;8448;52.034;5.158;2024-02-28T04:08:40;26.53;;;17.10;;
16669;SDS011;8448;52.034;5.158;2024-02-28T04:11:08;25.63;;;16.50;;
16669;SDS011;8448;52.034;5.158;2024-02-28T04:13:36;23.47;;;16.20;;
16669;SDS011;8448;52.034;5.158;2024-02-28T04:16:03;26.40;;;17.30;;
16669;SDS011;8448;52.034;5.158;2024-02-28T04:18:31;27.80;;;16.43;;
16669;SDS011;8448;52.034;5.158;2024-02-28T04:20:58;26.33;;;18.17;;
16669;SDS011;8448;52.034;5.158;2024-02-28T04:23:27;25.17;;;17.20;;
16669;SDS011;8448;52.034;5.158;2024-02-28T04:25:54;25.93;;;16.40;;
16669;SDS011;8448;52.034;5.158;2024-02-28T04:28:22;25.13;;;16.40;;
16669;SDS011;8448;52.034;5.158;2024-02-28T04:30:49;25.00;;;15.60;;
16669;SDS011;8448;52.034;5.158;2024-02-28T04:33:17;27.87;;;15.37;;
16669;SDS011;8448;52.034;5.158;2024-02-28T04:35:44;27.90;;;16.07;;
16669;SDS011;8448;52.034;5.158;2024-02-28T04:38:12;25.63;;;15.43;;
16669;SDS011;8448;52.034;5.158;2024-02-28T04:40:40;23.77;;;15.57;;
16669;SDS011;8448;52.034;5.158;2024-02-28T04:43:08;21.17;;;14.13;;
16669;SDS011;8448;52.034;5.158;2024-02-28T04:45:35;24.73;;;15.70;;
16669;SDS011;8448;52.034;5.158;2024-02-28T04:48:03;25.83;;;14.60;;
16669;SDS011;8448;52.034;5.158;2024-02-28T04:50:31;26.67;;;14.70;;
16669;SDS011;8448;52.034;5.158;2024-02-28T04:52:58;23.80;;;15.43;;
16669;SDS011;8448;52.034;5.158;2024-02-28T04:55:26;23.17;;;14.93;;
16669;SDS011;8448;52.034;5.158;2024-02-28T04:57:55;24.13;;;14.27;;
16669;SDS011;8448;52.034;5.158;2024-02-28T05:00:22;21.57;;;14.60;;
16669;SDS011;8448;52.034;5.158;2024-02-28T05:02:50;25.00;;;15.00;;
16669;SDS011;8448;52.034;5.158;2024-02-28T05:05:17;24.40;;;15.13;;
16669;SDS011;8448;52.034;5.158;2024-02-28T05:07:44;22.43;;;14.93;;
16669;SDS011;8448;52.034;5.158;2024-02-28T05:10:12;24.53;;;15.50;;
16669;SDS011;8448;52.034;5.158;2024-02-28T05:12:39;27.87;;;15.60;;
16669;SDS011;8448;52.034;5.158;2024-02-28T05:15:09;22.43;;;14.50;;
16669;SDS011;8448;52.034;5.158;2024-02-28T05:17:37;22.90;;;14.90;;
16669;SDS011;8448;52.034;5.158;2024-02-28T05:20:04;21.80;;;14.37;;
16669;SDS011;8448;52.034;5.158;2024-02-28T05:22:33;24.03;;;15.60;;
16669;SDS011;8448;52.034;5.158;2024-02-28T05:25:00;24.20;;;15.30;;
16669;SDS011;8448;52.034;5.158;2024-02-28T05:27:28;24.03;;;15.53;;
16669;SDS011;8448;52.034;5.158;2024-02-28T05:29:55;23.90;;;15.60;;
16669;SDS011;8448;52.034;5.158;2024-02-28T05:32:24;23.23;;;14.60;;
16669;SDS011;8448;52.034;5.158;2024-02-28T05:34:51;23.63;;;15.67;;
16669;SDS011;8448;52.034;5.158;2024-02-28T05:37:19;23.50;;;16.00;;
16669;SDS011;8448;52.034;5.158;2024-02-28T05:39:46;24.70;;;16.27;;
16669;SDS011;8448;52.034;5.158;2024-02-28T05:42:13;22.87;;;15.83;;
16669;SDS011;8448;52.034;5.158;2024-02-28T05:44:46;23.67;;;15.80;;
16669;SDS011;8448;52.034;5.158;2024-02-28T05:47:14;21.47;;;15.00;;
16669;SDS011;8448;52.034;5.158;2024-02-28T05:49:42;25.90;;;15.80;;
16669;SDS011;8448;52.034;5.158;2024-02-28T05:52:10;24.63;;;16.50;;
16669;SDS011;8448;52.034;5.158;2024-02-28T05:54:38;23.73;;;16.17;;
16669;SDS011;8448;52.034;5.158;2024-02-28T05:57:06;26.00;;;16.67;;
16669;SDS011;8448;52.034;5.158;2024-02-28T05:59:33;27.43;;;16.47;;
16669;SDS011;8448;52.034;5.158;2024-02-28T06:02:01;25.13;;;17.20;;
16669;SDS011;8448;52.034;5.158;2024-02-28T06:04:28;23.57;;;16.10;;
16669;SDS011;8448;52.034;5.158;2024-02-28T06:06:57;27.47;;;17.07;;
16669;SDS011;8448;52.034;5.158;2024-02-28T06:09:25;25.80;;;17.43;;
16669;SDS011;8448;52.034;5.158;2024-02-28T06:11:53;28.37;;;17.63;;
16669;SDS011;8448;52.034;5.158;2024-02-28T06:14:21;28.37;;;17.27;;
16669;SDS011;8448;52.034;5.158;2024-02-28T06:16:48;28.20;;;17.93;;
16669;SDS011;8448;52.034;5.158;2024-02-28T06:19:15;27.70;;;17.97;;
16669;SDS011;8448;52.034;5.158;2024-02-28T06:21:43;27.30;;;17.37;;
16669;SDS011;8448;52.034;5.158;2024-02-28T06:24:12;30.13;;;17.80;;
16669;SDS011;8448;52.034;5.158;2024-02-28T06:26:39;27.13;;;17.63;;
16669;SDS011;8448;52.034;5.158;2024-02-28T06:29:08;27.30;;;18.20;;
16669;SDS011;8448;52.034;5.158;2024-02-28T06:31:36;29.20;;;17.97;;
16669;SDS011;8448;52.034;5.158;2024-02-28T06:34:04;28.53;;;18.93;;
16669;SDS011;8448;52.034;5.158;2024-02-28T06:36:31;29.43;;;19.07;;
16669;SDS011;8448;52.034;5.158;2024-02-28T06:38:59;28.33;;;18.97;;
16669;SDS011;8448;52.034;5.158;2024-02-28T06:41:27;29.40;;;18.97;;
16669;SDS011;8448;52.034;5.158;2024-02-28T06:43:55;30.80;;;18.80;;
16669;SDS011;8448;52.034;5.158;2024-02-28T06:46:22;31.23;;;19.83;;
16669;SDS011;8448;52.034;5.158;2024-02-28T06:48:50;29.40;;;19.57;;
16669;SDS011;8448;52.034;5.158;2024-02-28T06:51:17;30.57;;;19.17;;
16669;SDS011;8448;52.034;5.158;2024-02-28T06:53:44;32.20;;;20.33;;
16669;SDS011;8448;52.034;5.158;2024-02-28T06:56:12;27.90;;;19.90;;
16669;SDS011;8448;52.034;5.158;2024-02-28T06:58:41;29.27;;;19.50;;
16669;SDS011;8448;52.034;5.158;2024-02-28T07:01:08;30.40;;;20.00;;
16669;SDS011;8448;52.034;5.158;2024-02-28T07:03:35;30.60;;;19.60;;
16669;SDS011;8448;52.034;5.158;2024-02-28T07:06:03;32.47;;;20.13;;
16669;SDS011;8448;52.034;5.158;2024-02-28T07:08:31;32.40;;;19.60;;
16669;SDS011;8448;52.034;5.158;2024-02-28T07:10:59;29.60;;;19.00;;
16669;SDS011;8448;52.034;5.158;2024-02-28T07:13:26;29.00;;;19.10;;
16669;SDS011;8448;52.034;5.158;2024-02-28T07:15:55;27.67;;;18.80;;
16669;SDS011;8448;52.034;5.158;2024-02-28T07:18:23;32.80;;;20.20;;
16669;SDS011;8448;52.034;5.158;2024-02-28T07:20:53;30.33;;;20.40;;
16669;SDS011;8448;52.034;5.158;2024-02-28T07:23:20;30.07;;;19.33;;
16669;SDS011;8448;52.034;5.158;2024-02-28T07:25:48;30.90;;;20.17;;
16669;SDS011;8448;52.034;5.158;2024-02-28T07:28:15;32.37;;;20.17;;
16669;SDS011;8448;52.034;5.158;2024-02-28T07:30:43;33.50;;;19.23;;
16669;SDS011;8448;52.034;5.158;2024-02-28T07:33:12;30.27;;;20.43;;
16669;SDS011;8448;52.034;5.158;2024-02-28T07:35:46;29.27;;;19.47;;
16669;SDS011;8448;52.034;5.158;2024-02-28T07:38:15;32.30;;;20.23;;
16669;SDS011;8448;52.034;5.158;2024-02-28T07:40:45;28.53;;;19.77;;
16669;SDS011;8448;52.034;5.158;2024-02-28T07:43:13;30.90;;;19.87;;
16669;SDS011;8448;52.034;5.158;2024-02-28T07:45:41;30.70;;;19.80;;
16669;SDS011;8448;52.034;5.158;2024-02-28T07:48:08;27.77;;;19.87;;
16669;SDS011;8448;52.034;5.158;2024-02-28T07:50:37;31.20;;;19.57;;
16669;SDS011;8448;52.034;5.158;2024-02-28T07:53:06;33.10;;;19.43;;
16669;SDS011;8448;52.034;5.158;2024-02-28T07:55:34;33.87;;;20.57;;
16669;SDS011;8448;52.034;5.158;2024-02-28T07:58:01;29.80;;;20.03;;
16669;SDS011;8448;52.034;5.158;2024-02-28T08:00:30;30.97;;;20.83;;
16669;SDS011;8448;52.034;5.158;2024-02-28T08:02:58;32.33;;;20.23;;
16669;SDS011;8448;52.034;5.158;2024-02-28T08:05:25;29.57;;;19.43;;
16669;SDS011;8448;52.034;5.158;2024-02-28T08:07:54;29.87;;;19.83;;
16669;SDS011;8448;52.034;5.158;2024-02-28T08:10:22;33.37;;;20.43;;
16669;SDS011;8448;52.034;5.158;2024-02-28T08:12:49;32.30;;;20.77;;
16669;SDS011;8448;52.034;5.158;2024-02-28T08:15:16;29.33;;;20.40;;
16669;SDS011;8448;52.034;5.158;2024-02-28T08:17:44;27.33;;;19.47;;
16669;SDS011;8448;52.034;5.158;2024-02-28T08:20:11;30.33;;;20.87;;
16669;SDS011;8448;52.034;5.158;2024-02-28T08:22:39;33.17;;;20.43;;
16669;SDS011;8448;52.034;5.158;2024-02-28T08:25:08;28.97;;;19.53;;
16669;SDS011;8448;52.034;5.158;2024-02-28T08:27:36;27.00;;;19.13;;
16669;SDS011;8448;52.034;5.158;2024-02-28T08:30:04;31.47;;;20.83;;
16669;SDS011;8448;52.034;5.158;2024-02-28T08:32:33;28.70;;;19.67;;
16669;SDS011;8448;52.034;5.158;2024-02-28T08:35:00;30.80;;;20.87;;
16669;SDS011;8448;52.034;5.158;2024-02-28T08:37:28;28.33;;;19.77;;
16669;SDS011;8448;52.034;5.158;2024-02-28T08:40:01;25.40;;;18.90;;
16669;SDS011;8448;52.034;5.158;2024-02-28T08:42:30;30.37;;;19.37;;
16669;SDS011;8448;52.034;5.158;2024-02-28T08:44:58;28.50;;;18.63;;
16669;SDS011;8448;52.034;5.158;2024-02-28T08:47:26;31.73;;;19.00;;
16669;SDS011;8448;52.034;5.158;2024-02-28T08:49:54;30.40;;;19.60;;
16669;SDS011;8448;52.034;5.158;2024-02-28T08:52:21;29.20;;;19.70;;
16669;SDS011;8448;52.034;5.158;2024-02-28T08:54:48;32.40;;;20.17;;
16669;SDS011;8448;52.034;5.158;2024-02-28T08:57:16;28.77;;;19.80;;
16669;SDS011;8448;52.034;5.158;2024-02-28T08:59:46;30.87;;;20.10;;
16669;SDS011;8448;52.034;5.158;2024-02-28T09:02:14;32.17;;;20.47;;
16669;SDS011;8448;52.034;5.158;2024-02-28T09:04:41;28.40;;;19.60;;
16669;SDS011;8448;52.034;5.158;2024-02-28T09:07:09;28.67;;;19.83;;
16669;SDS011;8448;52.034;5.158;2024-02-28T09:09:40;30.07;;;19.57;;
16669;SDS011;8448;52.034;5.158;2024-02-28T09:12:08;31.67;;;19.60;;
16669;SDS011;8448;52.034;5.158;2024-02-28T09:14:35;29.73;;;20.60;;
16669;SDS011;8448;52.034;5.158;2024-02-28T09:17:05;29.03;;;20.00;;
16669;SDS011;8448;52.034;5.158;2024-02-28T09:19:32;28.60;;;19.70;;
16669;SDS011;8448;52.034;5.158;2024-02-28T09:22:00;26.77;;;19.30;;
16669;SDS011;8448;52.034;5.158;2024-02-28T09:24:27;27.67;;;19.10;;
16669;SDS011;8448;52.034;5.158;2024-02-28T09:26:54;31.97;;;19.60;;
16669;SDS011;8448;52.034;5.158;2024-02-28T09:29:22;27.93;;;18.87;;
16669;SDS011;8448;52.034;5.158;2024-02-28T09:31:49;26.07;;;18.30;;
16669;SDS011;8448;52.034;5.158;2024-02-28T09:34:18;27.33;;;18.70;;
16669;SDS011;8448;52.034;5.158;2024-02-28T09:36:45;28.57;;;19.83;;
16669;SDS011;8448;52.034;5.158;2024-02-28T09:39:13;29.70;;;19.87;;
16669;SDS011;8448;52.034;5.158;2024-02-28T09:41:41;29.70;;;20.17;;
16669;SDS011;8448;52.034;5.158;2024-02-28T09:44:08;31.80;;;20.30;;
16669;SDS011;8448;52.034;5.158;2024-02-28T09:46:36;28.47;;;19.73;;
16669;SDS011;8448;52.034;5.158;2024-02-28T09:49:03;27.00;;;19.43;;
16669;SDS011;8448;52.034;5.158;2024-02-28T09:51:34;25.83;;;18.37;;
16669;SDS011;8448;52.034;5.158;2024-02-28T09:54:01;30.17;;;20.00;;
16669;SDS011;8448;52.034;5.158;2024-02-28T09:56:30;32.73;;;19.33;;
16669;SDS011;8448;52.034;5.158;2024-02-28T09:58:57;27.43;;;19.40;;
16669;SDS011;8448;52.034;5.158;2024-02-28T10:01:27;31.17;;;19.30;;
16669;SDS011;8448;52.034;5.158;2024-02-28T10:03:55;30.30;;;19.30;;
16669;SDS011;8448;52.034;5.158;2024-02-28T10:06:23;30.57;;;19.60;;
16669;SDS011;8448;52.034;5.158;2024-02-28T10:08:52;31.10;;;19.87;;
16669;SDS011;8448;52.034;5.158;2024-02-28T10:11:19;31.60;;;20.73;;
16669;SDS011;8448;52.034;5.158;2024-02-28T10:13:47;31.33;;;21.67;;
16669;SDS011;8448;52.034;5.158;2024-02-28T10:16:14;30.73;;;21.03;;
16669;SDS011;8448;52.034;5.158;2024-02-28T10:18:42;31.87;;;21.53;;
16669;SDS011;8448;52.034;5.158;2024-02-28T10:21:09;32.40;;;21.47;;
16669;SDS011;8448;52.034;5.158;2024-02-28T10:23:37;30.53;;;21.50;;
16669;SDS011;8448;52.034;5.158;2024-02-28T10:26:08;34.93;;;21.30;;
16669;SDS011;8448;52.034;5.158;2024-02-28T10:28:36;33.93;;;21.80;;
16669;SDS011;8448;52.034;5.158;2024-02-28T10:31:05;32.73;;;22.27;;
16669;SDS011;8448;52.034;5.158;2024-02-28T10:33:33;31.97;;;21.53;;
16669;SDS011;8448;52.034;5.158;2024-02-28T10:36:01;33.83;;;21.10;;
16669;SDS011;8448;52.034;5.158;2024-02-28T10:38:30;30.87;;;20.97;;
16669;SDS011;8448;52.034;5.158;2024-02-28T10:40:58;35.17;;;21.07;;
16669;SDS011;8448;52.034;5.158;2024-02-28T10:43:27;31.93;;;21.30;;
16669;SDS011;8448;52.034;5.158;2024-02-28T10:45:56;31.27;;;21.37;;
16669;SDS011;8448;52.034;5.158;2024-02-28T10:48:24;36.17;;;22.33;;
16669;SDS011;8448;52.034;5.158;2024-02-28T10:50:51;32.60;;;21.53;;
16669;SDS011;8448;52.034;5.158;2024-02-28T10:53:20;36.83;;;23.67;;
16669;SDS011;8448;52.034;5.158;2024-02-28T10:55:49;37.47;;;23.03;;
16669;SDS011;8448;52.034;5.158;2024-02-28T10:58:18;36.87;;;24.17;;
16669;SDS011;8448;52.034;5.158;2024-02-28T11:00:47;32.77;;;22.60;;
16669;SDS011;8448;52.034;5.158;2024-02-28T11:03:16;36.33;;;23.00;;
16669;SDS011;8448;52.034;5.158;2024-02-28T11:05:44;37.33;;;22.30;;
16669;SDS011;8448;52.034;5.158;2024-02-28T11:08:19;34.33;;;22.53;;
16669;SDS011;8448;52.034;5.158;2024-02-28T11:10:53;35.30;;;22.73;;
16669;SDS011;8448;52.034;5.158;2024-02-28T11:13:21;33.73;;;21.70;;
16669;SDS011;8448;52.034;5.158;2024-02-28T11:15:50;32.27;;;22.50;;
16669;SDS011;8448;52.034;5.158;2024-02-28T11:18:18;36.60;;;22.77;;
16669;SDS011;8448;52.034;5.158;2024-02-28T11:20:45;39.63;;;23.03;;
16669;SDS011;8448;52.034;5.158;2024-02-28T11:23:14;37.33;;;22.70;;
16669;SDS011;8448;52.034;5.158;2024-02-28T11:25:41;35.77;;;23.73;;
16669;SDS011;8448;52.034;5.158;2024-02-28T11:28:09;35.87;;;21.73;;
16669;SDS011;8448;52.034;5.158;2024-02-28T11:30:36;38.67;;;22.23;;
16669;SDS011;8448;52.034;5.158;2024-02-28T11:33:05;35.87;;;22.33;;
16669;SDS011;8448;52.034;5.158;2024-02-28T11:35:34;31.53;;;21.60;;
16669;SDS011;8448;52.034;5.158;2024-02-28T11:38:01;36.50;;;21.80;;
16669;SDS011;8448;52.034;5.158;2024-02-28T11:40:28;33.47;;;21.20;;
16669;SDS011;8448;52.034;5.158;2024-02-28T11:42:56;29.97;;;19.73;;
16669;SDS011;8448;52.034;5.158;2024-02-28T11:45:24;32.93;;;20.53;;
16669;SDS011;8448;52.034;5.158;2024-02-28T11:47:51;33.90;;;21.30;;
16669;SDS011;8448;52.034;5.158;2024-02-28T11:50:20;31.10;;;19.93;;
16669;SDS011;8448;52.034;5.158;2024-02-28T11:52:48;31.80;;;18.67;;
16669;SDS011;8448;52.034;5.158;2024-02-28T11:55:15;29.97;;;19.83;;
16669;SDS011;8448;52.034;5.158;2024-02-28T11:57:43;31.53;;;19.17;;
16669;SDS011;8448;52.034;5.158;2024-02-28T12:00:12;31.33;;;20.73;;
16669;SDS011;8448;52.034;5.158;2024-02-28T12:02:39;33.23;;;20.17;;
16669;SDS011;8448;52.034;5.158;2024-02-28T12:05:07;28.80;;;18.87;;
16669;SDS011;8448;52.034;5.158;2024-02-28T12:07:36;28.27;;;18.80;;
16669;SDS011;8448;52.034;5.158;2024-02-28T12:10:04;32.97;;;19.80;;
16669;SDS011;8448;52.034;5.158;2024-02-28T12:12:33;26.67;;;18.60;;
16669;SDS011;8448;52.034;5.158;2024-02-28T12:15:01;30.23;;;18.00;;
16669;SDS011;8448;52.034;5.158;2024-02-28T12:17:30;29.07;;;18.90;;
16669;SDS011;8448;52.034;5.158;2024-02-28T12:19:58;32.60;;;18.50;;
16669;SDS011;8448;52.034;5.158;2024-02-28T12:22:26;31.07;;;18.90;;
16669;SDS011;8448;52.034;5.158;2024-02-28T12:24:55;30.07;;;18.27;;
16669;SDS011;8448;52.034;5.158;2024-02-28T12:27:23;30.33;;;18.60;;
16669;SDS011;8448;52.034;5.158;2024-02-28T12:29:50;31.40;;;19.73;;
16669;SDS011;8448;52.034;5.158;2024-02-28T12:32:17;29.47;;;17.97;;
16669;SDS011;8448;52.034;5.158;2024-02-28T12:34:45;27.80;;;17.73;;
16669;SDS011;8448;52.034;5.158;2024-02-28T12:37:12;29.27;;;18.17;;
16669;SDS011;8448;52.034;5.158;2024-02-28T12:39:39;30.80;;;18.23;;
16669;SDS011;8448;52.034;5.158;2024-02-28T12:42:08;29.20;;;18.23;;
16669;SDS011;8448;52.034;5.158;2024-02-28T12:44:35;28.93;;;18.33;;
16669;SDS011;8448;52.034;5.158;2024-02-28T12:47:04;27.53;;;17.67;;
16669;SDS011;8448;52.034;5.158;2024-02-28T12:49:31;29.33;;;18.03;;
16669;SDS011;8448;52.034;5.158;2024-02-28T12:51:59;30.50;;;18.20;;
16669;SDS011;8448;52.034;5.158;2024-02-28T12:54:26;29.50;;;17.90;;
16669;SDS011;8448;52.034;5.158;2024-02-28T12:56:53;26.10;;;17.23;;
16669;SDS011;8448;52.034;5.158;2024-02-28T12:59:22;28.30;;;17.17;;
16669;SDS011;8448;52.034;5.158;2024-02-28T13:01:50;26.90;;;17.30;;
16669;SDS011;8448;52.034;5.158;2024-02-28T13:04:18;28.50;;;17.20;;
16669;SDS011;8448;52.034;5.158;2024-02-28T13:06:45;26.07;;;16.47;;
16669;SDS011;8448;52.034;5.158;2024-02-28T13:09:12;27.03;;;16.53;;
16669;SDS011;8448;52.034;5.158;2024-02-28T13:11:40;25.63;;;16.53;;
16669;SDS011;8448;52.034;5.158;2024-02-28T13:14:07;23.90;;;16.13;;
16669;SDS011;8448;52.034;5.158;2024-02-28T13:16:37;27.60;;;16.40;;
16669;SDS011;8448;52.034;5.158;2024-02-28T13:19:04;29.50;;;17.77;;
16669;SDS011;8448;52.034;5.158;2024-02-28T13:21:32;27.37;;;17.70;;
16669;SDS011;8448;52.034;5.158;2024-02-28T13:24:01;29.90;;;16.67;;
16669;SDS011;8448;52.034;5.158;2024-02-28T13:26:29;28.53;;;17.07;;
16669;SDS011;8448;52.034;5.158;2024-02-28T13:28:56;24.87;;;17.27;;
16669;SDS011;8448;52.034;5.158;2024-02-28T13:31:24;28.33;;;18.10;;
16669;SDS011;8448;52.034;5.158;2024-02-28T13:33:52;29.37;;;17.97;;
16669;SDS011;8448;52.034;5.158;2024-02-28T13:36:20;30.07;;;18.47;;
16669;SDS011;8448;52.034;5.158;2024-02-28T13:38:47;31.73;;;20.63;;
16669;SDS011;8448;52.034;5.158;2024-02-28T13:41:14;34.70;;;20.17;;
16669;SDS011;8448;52.034;5.158;2024-02-28T13:43:42;29.27;;;19.67;;
16669;SDS011;8448;52.034;5.158;2024-02-28T13:46:09;30.33;;;18.63;;
16669;SDS011;8448;52.034;5.158;2024-02-28T13:48:37;29.13;;;18.90;;
16669;SDS011;8448;52.034;5.158;2024-02-28T13:51:06;30.53;;;18.37;;
16669;SDS011;8448;52.034;5.158;2024-02-28T13:53:33;27.17;;;18.30;;
16669;SDS011;8448;52.034;5.158;2024-02-28T13:56:00;28.37;;;18.73;;
16669;SDS011;8448;52.034;5.158;2024-02-28T13:58:28;27.60;;;17.80;;
16669;SDS011;8448;52.034;5.158;2024-02-28T14:00:55;27.57;;;17.70;;
16669;SDS011;8448;52.034;5.158;2024-02-28T14:03:22;28.97;;;17.97;;
16669;SDS011;8448;52.034;5.158;2024-02-28T14:05:50;27.63;;;18.10;;
16669;SDS011;8448;52.034;5.158;2024-02-28T14:08:19;30.40;;;17.73;;
16669;SDS011;8448;52.034;5.158;2024-02-28T14:10:46;29.07;;;17.73;;
16669;SDS011;8448;52.034;5.158;2024-02-28T14:13:14;27.87;;;18.33;;
16669;SDS011;8448;52.034;5.158;2024-02-28T14:15:43;27.17;;;17.90;;
16669;SDS011;8448;52.034;5.158;2024-02-28T14:18:12;27.73;;;17.77;;
16669;SDS011;8448;52.034;5.158;2024-02-28T14:20:39;28.77;;;17.77;;
16669;SDS011;8448;52.034;5.158;2024-02-28T14:23:07;27.17;;;17.70;;
16669;SDS011;8448;52.034;5.158;2024-02-28T14:25:36;25.97;;;17.40;;
16669;SDS011;8448;52.034;5.158;2024-02-28T14:28:03;31.03;;;18.57;;
16669;SDS011;8448;52.034;5.158;2024-02-28T14:30:31;27.97;;;18.37;;
16669;SDS011;8448;52.034;5.158;2024-02-28T14:32:58;29.17;;;18.10;;
16669;SDS011;8448;52.034;5.158;2024-02-28T14:35:25;32.57;;;19.10;;
16669;SDS011;8448;52.034;5.158;2024-02-28T14:37:52;33.30;;;19.27;;